Manuel Greco

Chefscout - Empoli
19 Nov 2028
Sonntag
Verarbeitung

Persönlichkeit

Anpassungsfähigkeit (12) Ehrgeiz (2) Kontroverse (17) Loyalität (10) Druck (12) Professionalität (2) Fairness (16) Temperament (19)

Profil

Trainerstil Demokratisch
Lizenz Kontinentale B
Entschlossenheit 4
Menschenführung 13
Motivation 10
Disziplin 4
Arbeitszufriedenheit
41%
Ermüdung
0%
Rolle Chefscout
Gehalt 13.5K p/W
Vertrag 14.03.2030

Leistung

Verhalten Gut
Trainingseffektivität
21%
Spielerentwicklung
50%
Verletzungsprävention
25%
Taktische Umsetzung
60%

Letzte Ereignisse

Nahm an einer Scouting-Besprechung teil jetzt
Empfahl ein Transferziel jetzt
Empfahl ein Transferziel jetzt
Empfahl ein Transferziel jetzt
Empfahl ein Transferziel 7T her
Empfahl ein Transferziel 7T her
Empfahl ein Transferziel 7T her
Empfahl ein Transferziel 7T her

Aktuell beobachtet

139
Spieler Verein Status Fähigkeit Vertrauen Beobachtet Zuletzt beobachtet Letzte Stimme
Stefano Mazzini Carrarese Aktiv 109 / 102 65% 1 07.08.2028 Befürworten
André Miranda Porto Aktiv 112 / 119 40% 3 31.05.2028 -
Ben Broggio Mansfield Town Aktiv 107 / 117 40% 1 31.05.2028 -
Francisco Fernandes Porto Aktiv 94 / 109 40% 1 31.05.2028 -
Alessio Insignito Spezia Aktiv 95 / 110 40% 4 13.05.2028 -
Tobías Ramírez River Plate Aktiv 117 / 131 40% 1 10.05.2028 -
Nicolò Moranduzzo Renate Aktiv 101 / 103 40% 5 09.05.2028 -
Jan Bürger Northampton Town Aktiv 126 / 124 40% 4 09.05.2028 -
Kiani Inge Groningen Aktiv 107 / 120 40% 4 07.05.2028 -
Christos Mouzakitis Hull City Aktiv 129 / 143 40% 2 07.05.2028 -
Ayden Heaven Portsmouth Aktiv 144 / 150 40% 2 06.05.2028 -
Abubakar Adams Aduana Stars Aktiv 82 / 93 40% 2 03.05.2028 -
Jorthy Mokio ADO Den Haag Aktiv 135 / 137 40% 3 02.05.2028 -
Riquelme Thompson-Jones Accrington Stanley Aktiv 105 / 115 40% 1 02.05.2028 -
Augusto Bando Ascoli Aktiv 113 / 114 40% 3 01.05.2028 -
Vittorio Magni Cesena Aktiv 102 / 117 40% 1 01.05.2028 -
Simone Suppa Virtus Verona Aktiv 83 / 94 40% 6 30.04.2028 -
Federico Matarán Giana Erminio Aktiv 107 / 110 40% 3 28.04.2028 -
Andrea Cogoni Cosenza Aktiv 100 / 112 40% 2 27.04.2028 -
Tyler Fletcher Rotherham United Aktiv 114 / 115 40% 1 27.04.2028 -
Josh Nichols Oldham Athletic Aktiv 117 / 125 40% 3 24.04.2028 -
Denys Smetana Rukh Aktiv 109 / 104 40% 1 24.04.2028 -
Fabio Rispoli Como Aktiv 115 / 124 40% 1 23.04.2028 -
Bernardo Lima Porto Aktiv 112 / 117 40% 5 21.04.2028 -
Bence Szakos Aris Aktiv 94 / 96 40% 3 21.04.2028 -
Musa Danjuma Umraniyespor Aktiv 108 / 106 40% 1 19.04.2028 -
Kelian Le Pironnec Mirandés Aktiv 92 / 102 40% 1 18.04.2028 -
Trey Nyoni Rotherham United Aktiv 142 / 146 40% 3 16.04.2028 -
Martim Cunha Porto Aktiv 115 / 111 40% 3 14.04.2028 -
Andrea Bertoncini Triestina Aktiv 87 / 98 40% 2 12.04.2028 -
Andrey Ivlev Nizhniy Novgorod Aktiv 108 / 124 40% 5 11.04.2028 -
Matvey Bardachev Zenit Aktiv 104 / 115 40% 1 08.04.2028 -
Amine Boukamir Charleroi Aktiv 104 / 108 40% 3 30.03.2028 -
Othniël Raterink Cagliari Aktiv 124 / 120 40% 2 30.03.2028 -
Jon Esenga IF Elfsborg Aktiv 94 / 99 40% 2 27.03.2028 -
Tobiáš Pališčák Zlin Aktiv 104 / 109 40% 1 24.03.2028 -
Luka Vušković Tottenham Aktiv 139 / 151 40% 2 23.03.2028 -
Dimitar Papazov Levadiakos Aktiv 85 / 97 40% 1 20.03.2028 -
Miguel Figueiredo Benfica Aktiv 113 / 129 40% 2 14.03.2028 -
Claudio Martey Pianese Aktiv 91 / 93 40% 1 13.03.2028 -
Josh Acheampong Everton Aktiv 140 / 147 40% 1 09.03.2028 -
Toni Fruk Talleres Aktiv 132 / 133 89% 1 01.01.2028 Befürworten
Sindre Walle Egeli Udinese Aktiv 136 / 141 40% 4 31.12.2027 -
Pedro Baltika Aktiv 125 / 135 40% 3 30.12.2027 -
Onyeuche Ujunwa Ikorodu City Aktiv 98 / 88 40% 1 28.12.2027 -
Giovanni Baroni Talleres Aktiv 117 / 117 40% 1 26.12.2027 -
Gorka Gorosabel Real Sociedad Aktiv 116 / 121 40% 1 26.12.2027 -
Emmanuel Ndubueze Shooting Stars Aktiv 82 / 103 40% 1 25.12.2027 -
Senny Mayulu Paris Saint-Germain Aktiv 157 / 155 40% 1 25.12.2027 -
Joel Ezra Enyimba Aktiv 89 / 102 40% 1 24.12.2027 -
Gabriele Bertolini Vicenza Aktiv 112 / 109 40% 3 23.12.2027 -
İsak Vural Audace Cerignola Aktiv 126 / 126 40% 1 21.12.2027 -
Edison Gruezo Guadalajara Aktiv 100 / 112 40% 1 21.12.2027 -
Luighi Palmeiras Aktiv 114 / 119 40% 1 20.12.2027 -
Kevin Filling AIK Aktiv 108 / 114 40% 1 20.12.2027 -
Alphadjo Cissé Lecce Aktiv 132 / 137 40% 2 19.12.2027 -
Chimobi Igwilo Rangers International Aktiv 91 / 94 40% 1 19.12.2027 -
Cristiano Oliveira New England Revolution Aktiv 94 / 95 40% 2 18.12.2027 -
Kwesi Sorotu Badori Berekum Chelsea Aktiv 87 / 101 40% 1 13.12.2027 -
Kabiru Abdullahi Barau Aktiv 100 / 94 40% 1 13.12.2027 -
Victor Hernandez Santa Fe Aktiv 107 / 131 40% 2 10.12.2027 -
Francisco Marchant Colo-Colo Aktiv 101 / 95 40% 1 06.12.2027 -
Francisco Triver River Plate Aktiv 91 / 92 40% 1 06.12.2027 -
Matias Siltanen Malmo FF Aktiv 113 / 133 40% 1 25.08.2027 -
Matteo Colombara Monopoli Aktiv 100 / 105 65% 1 02.08.2027 Befürworten
Erick Sánchez RC Lens Aktiv 139 / 139 68% 1 01.06.2027 Befürworten
Gonçalo Oliveira Benfica Aktiv 103 / 113 40% 1 31.05.2027 -
Matteo Lovato Padova Aktiv 127 / 135 40% 3 27.05.2027 -
Odilon Kossounou Atalanta Aktiv 142 / 139 40% 6 27.05.2027 -
Alen Vukaj Alcione Milano Aktiv 97 / 99 40% 1 27.05.2027 -
Enrico Delprato Parma Aktiv 134 / 141 40% 8 26.05.2027 -
Cesare Casadei Torino Aktiv 132 / 135 40% 2 26.05.2027 -
Ilario Monterisi Frosinone Aktiv 137 / 124 40% 3 25.05.2027 -
Giorgio Scalvini Atalanta Aktiv 148 / 149 40% 3 24.05.2027 -
Tommaso Pobega Bologna Aktiv 130 / 145 40% 6 22.05.2027 -
Charlie Gray Fleetwood Town Aktiv 84 / 96 40% 2 22.05.2027 -
Cristiano La Sorsa Trapani Aktiv 87 / 95 40% 1 22.05.2027 -
Anthony Oyono Frosinone Aktiv 131 / 124 40% 1 20.05.2027 -
Lewis Ferguson Bologna Aktiv 153 / 136 40% 7 15.05.2027 -
Danilo Veiga Lecce Aktiv 131 / 125 40% 6 15.05.2027 -
Adrián Bernabé Parma Aktiv 135 / 146 40% 8 13.05.2027 -
Billy Gilmour Napoli Aktiv 147 / 147 40% 3 12.05.2027 -
Víctor Guzmán Sporting CP Aktiv 101 / 105 40% 2 11.05.2027 -
Riyad Idrissi Cagliari Aktiv 117 / 121 40% 2 08.05.2027 -
Mitchel Bakker Modena Aktiv 124 / 123 40% 3 08.05.2027 -
Niccolò Pierozzi Palermo Aktiv 118 / 128 40% 1 08.05.2027 -
Gomolemo Kekana Maritzburg United Aktiv 95 / 117 40% 2 07.05.2027 -
João Abreu Porto Aktiv 82 / 95 40% 1 07.05.2027 -
Stefano Di Mario Virtus Entella Aktiv 130 / 118 40% 3 30.04.2027 -
Jordan Zemura Udinese Aktiv 143 / 138 40% 4 29.04.2027 -
Hans Nicolussi Caviglia Parma Aktiv 128 / 137 40% 3 29.04.2027 -
Mattia Della Rocca Pontedera Aktiv 90 / 98 40% 1 28.04.2027 -
Sascha Britschgi AC Milan Aktiv 110 / 128 40% 2 22.04.2027 -
Marco Pompetti Padova Aktiv 132 / 123 40% 2 22.04.2027 -
Mehdi Dorval Catanzaro Aktiv 133 / 125 40% 7 20.04.2027 -
Kirill Glebov CSKA Moscow Aktiv 131 / 128 40% 2 19.04.2027 -
Lucas Da Cunha Como Aktiv 145 / 152 40% 3 15.04.2027 -
Alessandro Sersanti Modena Aktiv 126 / 121 40% 3 11.04.2027 -
Giuseppe Leone Parma Aktiv 124 / 126 40% 3 10.04.2027 -
Nana Nuhu WAFA Aktiv 83 / 103 40% 3 08.04.2027 -
Riley Owen Stevenage Aktiv 101 / 110 40% 1 08.04.2027 -
Tommaso Cecotti Carpi Aktiv 97 / 102 40% 1 08.04.2027 -
Zack Nelson Ternana Aktiv 106 / 108 40% 1 28.03.2027 -
Borna Knezović Casarano Aktiv 99 / 113 40% 1 28.03.2027 -
Peter Amidu Acquah Asante Kotoko Aktiv 81 / 108 40% 1 19.03.2027 -
Trevoh Chalobah Como Aktiv 160 / 160 40% 4 07.03.2027 -
Thierry Rendall Correia Venezia Aktiv 133 / 138 40% 3 26.02.2027 -
Thalente Mbatha Orlando Pirates Aktiv 111 / 121 40% 1 20.02.2027 -
Oumar Solet Udinese Aktiv 136 / 150 40% 1 11.02.2027 -
Federico Gattoni Ascoli Aktiv 132 / 131 40% 1 08.02.2027 -
Matteo Zazza Altamura Aktiv 103 / 103 40% 1 25.01.2027 -
Amin Sarr Hellas Verona Aktiv 132 / 132 40% 3 01.01.2027 -
Santiago Pierotti Lecce Aktiv 129 / 135 40% 3 30.12.2026 -
Matija Frigan Parma Aktiv 128 / 132 40% 1 30.12.2026 -
Alessio Zerbin Frosinone Aktiv 131 / 121 40% 1 30.12.2026 -
Matteo Rover Reggiana Aktiv 117 / 113 40% 1 28.12.2026 -
Nicolò Cambiaghi Bologna Aktiv 147 / 133 40% 1 26.12.2026 -
Petar Stanić Ludogorets Aktiv 150 / 131 40% 1 25.12.2026 -
Giacomo Raspadori Atalanta Aktiv 152 / 148 40% 2 21.12.2026 -
Louis Leroux FC Nantes Aktiv 127 / 134 40% 1 21.12.2026 -
Nicolò Zaniolo Udinese Aktiv 138 / 144 40% 1 18.12.2026 -
Daniel Paraschiv Bnei Sakhnin Aktiv 114 / 113 40% 1 16.12.2026 -
Lorenzo Colombo Genoa Aktiv 129 / 129 40% 1 15.12.2026 -
Willem Geubbels Lecce Aktiv 136 / 122 40% 1 14.12.2026 -
Bongani Zungu Ajax Cape Town Aktiv 117 / 133 40% 1 05.12.2026 -
Etiosa Ighodaro Kaizer Chiefs Aktiv 106 / 120 40% 1 05.12.2026 -
Simphiwe Selepe Orlando Pirates Aktiv 102 / 120 40% 1 27.11.2026 -
Carlos Augusto Inter Aktiv 159 / 148 40% 1 22.11.2026 -
Gianluca Scamacca Atalanta Aktiv 147 / 140 40% 1 19.11.2026 -
Jurgen Ekkelenkamp Udinese Aktiv 126 / 124 40% 1 18.11.2026 -
David Miculescu FCSB Aktiv 120 / 127 40% 1 17.11.2026 -
Martín Ojeda Orlando City Aktiv 123 / 143 40% 1 15.11.2026 -
Sota Kitano Red Bull Salzburg Aktiv 133 / 122 40% 1 10.11.2026 -
Luca Moro Padova Aktiv 114 / 118 40% 1 07.11.2026 -
Mbekezeli Mbokazi Chicago Fire Aktiv 136 / 117 40% 1 05.11.2026 -
Valentín Aguiñagalde Temperley Aktiv 114 / 117 40% 1 07.10.2026 -
James Bacca La Equidad Aktiv 137 / 131 40% 1 11.09.2026 -
Marcel Ruiz Crystal Palace Aktiv 140 / 141 66% 1 24.08.2026 Befürworten
Franck Kessié Atalanta Aktiv 136 / 143 40% 1 01.08.2026 -